Time;durP1;ratioP1;P1;durP2;ratioP2;P2;SDS_P1;SDS_P2;PMS_P1;PMS_P2;Temp;Humidity;BMP_temperature;BMP_pressure;BME280_temperature;BME280_humidity;BME280_pressure;Samples;Min_cycle;Max_cycle;Signal;HPM_P1;HPM_P2
2022/10/05 00:00:39;;;;;;;1.85;1.75;;;;;;;6.25;100;96029.05;;;;
2022/10/05 00:01:43;;;;;;;1.65;1.55;;;;;;;6.14;100;96026.37;;;;
2022/10/05 00:02:45;;;;;;;1.65;1.55;;;;;;;6.14;100;96026.37;;;;
2022/10/05 00:03:47;;;;;;;1.65;1.55;;;;;;;6.14;100;96026.37;;;;
2022/10/05 00:04:47;;;;;;;1.65;1.55;;;;;;;6.14;100;96026.37;;;;
2022/10/05 00:05:51;;;;;;;1.65;1.55;;;;;;;6.14;100;96026.37;;;;
2022/10/05 00:06:52;;;;;;;1.65;1.55;;;;;;;6.14;100;96026.37;;;;
2022/10/05 00:07:57;;;;;;;1.65;1.55;;;;;;;6.14;100;96026.37;;;;
2022/10/05 00:09:10;;;;;;;1.65;1.55;;;;;;;6.14;100;96026.37;;;;
2022/10/05 00:10:15;;;;;;;1.65;1.55;;;;;;;6.14;100;96026.37;;;;
2022/10/05 00:11:18;;;;;;;1.65;1.55;;;;;;;6.14;100;96026.37;;;;
2022/10/05 00:12:19;;;;;;;1.55;1.45;;;;;;;6.03;100;96021.47;;;;
2022/10/05 00:13:21;;;;;;;1.55;1.45;;;;;;;6.03;100;96021.47;;;;
2022/10/05 00:14:24;;;;;;;1.55;1.45;;;;;;;6.03;100;96021.47;;;;
2022/10/05 00:15:28;;;;;;;1.55;1.45;;;;;;;6.03;100;96021.47;;;;
2022/10/05 00:16:29;;;;;;;1.55;1.45;;;;;;;6.03;100;96021.47;;;;
2022/10/05 00:17:29;;;;;;;1.55;1.45;;;;;;;6.03;100;96021.47;;;;
2022/10/05 00:18:30;;;;;;;1.55;1.45;;;;;;;6.03;100;96021.47;;;;
2022/10/05 00:19:31;;;;;;;1.55;1.45;;;;;;;6.03;100;96021.47;;;;
2022/10/05 00:20:34;;;;;;;1.55;1.45;;;;;;;6.03;100;96021.47;;;;
2022/10/05 00:21:34;;;;;;;1.55;1.45;;;;;;;6.03;100;96021.47;;;;
2022/10/05 00:22:35;;;;;;;1.55;1.45;;;;;;;6.03;100;96021.47;;;;
2022/10/05 00:23:35;;;;;;;1.55;1.45;;;;;;;6.03;100;96021.47;;;;
2022/10/05 00:24:36;;;;;;;1.55;1.45;;;;;;;6.03;100;96021.47;;;;
2022/10/05 00:25:36;;;;;;;1.55;1.45;;;;;;;6.03;100;96021.47;;;;
2022/10/05 00:26:37;;;;;;;1.55;1.45;;;;;;;6.03;100;96021.47;;;;
2022/10/05 00:27:38;;;;;;;1.55;1.45;;;;;;;6.03;100;96021.47;;;;
2022/10/05 00:28:39;;;;;;;1.55;1.45;;;;;;;6.03;100;96021.47;;;;
2022/10/05 00:29:40;;;;;;;1.55;1.45;;;;;;;6.03;100;96021.47;;;;
2022/10/05 00:30:40;;;;;;;1.55;1.45;;;;;;;6.03;100;96021.47;;;;
2022/10/05 00:31:41;;;;;;;1.55;1.45;;;;;;;6.03;100;96021.47;;;;
2022/10/05 00:32:42;;;;;;;1.55;1.45;;;;;;;6.03;100;96021.47;;;;
2022/10/05 00:33:43;;;;;;;1.5;1.4;;;;;;;5.83;100;95991.24;;;;
2022/10/05 00:34:43;;;;;;;1.5;1.4;;;;;;;5.83;100;95991.24;;;;
2022/10/05 00:35:45;;;;;;;1.5;1.4;;;;;;;5.83;100;95991.24;;;;
2022/10/05 00:36:46;;;;;;;1.5;1.4;;;;;;;5.83;100;95991.24;;;;
2022/10/05 00:37:46;;;;;;;1.5;1.4;;;;;;;5.83;100;95991.24;;;;
2022/10/05 00:38:52;;;;;;;1.5;1.4;;;;;;;5.83;100;95991.24;;;;
2022/10/05 00:39:54;;;;;;;1.5;1.4;;;;;;;5.83;100;95991.24;;;;
2022/10/05 00:40:55;;;;;;;1.5;1.4;;;;;;;5.83;100;95991.24;;;;
2022/10/05 00:42:05;;;;;;;1.5;1.4;;;;;;;5.83;100;95991.24;;;;
2022/10/05 00:43:22;;;;;;;1.5;1.4;;;;;;;5.83;100;95991.24;;;;
2022/10/05 00:44:40;;;;;;;1.6;1.25;;;;;;;5.82;100;95975.63;;;;
2022/10/05 00:45:48;;;;;;;1.6;1.25;;;;;;;5.82;100;95975.63;;;;
2022/10/05 00:46:55;;;;;;;1.6;1.25;;;;;;;5.82;100;95975.63;;;;
2022/10/05 00:48:01;;;;;;;1.6;1.25;;;;;;;5.82;100;95975.63;;;;
2022/10/05 00:49:16;;;;;;;1.6;1.25;;;;;;;5.82;100;95975.63;;;;
2022/10/05 00:50:28;;;;;;;1.6;1.25;;;;;;;5.82;100;95975.63;;;;
2022/10/05 00:51:42;;;;;;;1.6;1.25;;;;;;;5.82;100;95975.63;;;;
2022/10/05 00:52:50;;;;;;;1.6;1.25;;;;;;;5.82;100;95975.63;;;;
2022/10/05 00:53:59;;;;;;;1.6;1.25;;;;;;;5.82;100;95975.63;;;;
2022/10/05 00:55:14;;;;;;;1.35;1.25;;;;;;;5.75;100;95965.05;;;;
2022/10/05 00:56:27;;;;;;;1.35;1.25;;;;;;;5.75;100;95965.05;;;;
2022/10/05 00:57:41;;;;;;;1.35;1.25;;;;;;;5.75;100;95965.05;;;;
2022/10/05 00:58:56;;;;;;;1.35;1.25;;;;;;;5.75;100;95965.05;;;;
2022/10/05 01:00:13;;;;;;;1.35;1.25;;;;;;;5.75;100;95965.05;;;;
2022/10/05 01:01:18;;;;;;;1.35;1.25;;;;;;;5.75;100;95965.05;;;;
2022/10/05 01:02:26;;;;;;;1.35;1.25;;;;;;;5.75;100;95965.05;;;;
2022/10/05 01:03:35;;;;;;;1.35;1.25;;;;;;;5.75;100;95965.05;;;;
2022/10/05 01:04:47;;;;;;;1.35;1.25;;;;;;;5.75;100;95965.05;;;;
2022/10/05 01:05:53;;;;;;;1.5;1.4;;;;;;;5.68;100;95973.66;;;;
2022/10/05 01:07:03;;;;;;;1.5;1.4;;;;;;;5.68;100;95973.66;;;;
2022/10/05 01:08:13;;;;;;;1.5;1.4;;;;;;;5.68;100;95973.66;;;;
2022/10/05 01:09:30;;;;;;;1.5;1.4;;;;;;;5.68;100;95973.66;;;;
2022/10/05 01:10:40;;;;;;;1.5;1.4;;;;;;;5.68;100;95973.66;;;;
2022/10/05 01:11:47;;;;;;;1.5;1.4;;;;;;;5.68;100;95973.66;;;;
2022/10/05 01:12:55;;;;;;;1.5;1.4;;;;;;;5.68;100;95973.66;;;;
2022/10/05 01:14:04;;;;;;;1.5;1.4;;;;;;;5.68;100;95973.66;;;;
2022/10/05 01:15:14;;;;;;;1.5;1.4;;;;;;;5.68;100;95973.66;;;;
2022/10/05 01:16:21;;;;;;;1.6;1.4;;;;;;;5.65;100;95956.87;;;;
2022/10/05 01:17:28;;;;;;;1.6;1.4;;;;;;;5.65;100;95956.87;;;;
2022/10/05 01:18:38;;;;;;;1.6;1.4;;;;;;;5.65;100;95956.87;;;;
2022/10/05 01:19:47;;;;;;;1.6;1.4;;;;;;;5.65;100;95956.87;;;;
2022/10/05 01:21:05;;;;;;;1.6;1.4;;;;;;;5.65;100;95956.87;;;;
2022/10/05 01:22:16;;;;;;;1.6;1.4;;;;;;;5.65;100;95956.87;;;;
2022/10/05 01:23:34;;;;;;;1.6;1.4;;;;;;;5.65;100;95956.87;;;;
2022/10/05 01:24:51;;;;;;;1.6;1.4;;;;;;;5.65;100;95956.87;;;;
2022/10/05 01:26:06;;;;;;;1.6;1.4;;;;;;;5.65;100;95956.87;;;;
2022/10/05 01:27:25;;;;;;;1.25;1.15;;;;;;;5.73;100;95944.23;;;;
2022/10/05 01:28:36;;;;;;;1.25;1.15;;;;;;;5.73;100;95944.23;;;;
2022/10/05 01:29:42;;;;;;;1.25;1.15;;;;;;;5.73;100;95944.23;;;;
2022/10/05 01:30:48;;;;;;;1.25;1.15;;;;;;;5.73;100;95944.23;;;;
2022/10/05 01:31:55;;;;;;;1.25;1.15;;;;;;;5.73;100;95944.23;;;;
2022/10/05 01:33:07;;;;;;;1.25;1.15;;;;;;;5.73;100;95944.23;;;;
2022/10/05 01:34:17;;;;;;;1.25;1.15;;;;;;;5.73;100;95944.23;;;;
2022/10/05 01:35:26;;;;;;;1.25;1.15;;;;;;;5.73;100;95944.23;;;;
2022/10/05 01:36:37;;;;;;;1.25;1.15;;;;;;;5.73;100;95944.23;;;;
2022/10/05 01:37:47;;;;;;;1.25;1.15;;;;;;;5.73;100;95944.23;;;;
2022/10/05 01:38:57;;;;;;;1.25;1.15;;;;;;;5.73;100;95944.23;;;;
2022/10/05 01:40:07;;;;;;;1.25;1.15;;;;;;;5.73;100;95944.23;;;;
2022/10/05 01:41:18;;;;;;;1.25;1.15;;;;;;;5.73;100;95944.23;;;;
2022/10/05 01:42:32;;;;;;;1.25;1.15;;;;;;;5.73;100;95944.23;;;;
2022/10/05 01:43:40;;;;;;;1.25;1.15;;;;;;;5.73;100;95944.23;;;;
2022/10/05 01:44:46;;;;;;;1.25;1.15;;;;;;;5.73;100;95944.23;;;;
2022/10/05 01:45:53;;;;;;;1.25;1.15;;;;;;;5.73;100;95944.23;;;;
2022/10/05 01:47:02;;;;;;;1.25;1.15;;;;;;;5.73;100;95944.23;;;;
2022/10/05 01:48:08;;;;;;;1.3;1.2;;;;;;;5.74;100;95928.81;;;;
2022/10/05 01:49:19;;;;;;;1.3;1.2;;;;;;;5.74;100;95928.81;;;;
2022/10/05 01:50:35;;;;;;;1.3;1.2;;;;;;;5.74;100;95928.81;;;;
2022/10/05 01:51:50;;;;;;;1.3;1.2;;;;;;;5.74;100;95928.81;;;;
2022/10/05 01:53:04;;;;;;;1.3;1.2;;;;;;;5.74;100;95928.81;;;;
2022/10/05 01:54:24;;;;;;;1.3;1.2;;;;;;;5.74;100;95928.81;;;;
2022/10/05 01:55:37;;;;;;;1.3;1.2;;;;;;;5.74;100;95928.81;;;;
2022/10/05 01:56:44;;;;;;;1.3;1.2;;;;;;;5.74;100;95928.81;;;;
2022/10/05 01:57:53;;;;;;;1.3;1.2;;;;;;;5.74;100;95928.81;;;;
2022/10/05 01:59:06;;;;;;;1.1;1;;;;;;;5.81;100;95934.14;;;;
2022/10/05 02:00:18;;;;;;;1.1;1;;;;;;;5.81;100;95934.14;;;;
2022/10/05 02:01:19;;;;;;;1.1;1;;;;;;;5.81;100;95934.14;;;;
2022/10/05 02:02:28;;;;;;;1.1;1;;;;;;;5.81;100;95934.14;;;;
2022/10/05 02:03:33;;;;;;;1.1;1;;;;;;;5.81;100;95934.14;;;;
2022/10/05 02:04:39;;;;;;;1.1;1;;;;;;;5.81;100;95934.14;;;;
2022/10/05 02:05:44;;;;;;;1.1;1;;;;;;;5.81;100;95934.14;;;;
2022/10/05 02:06:51;;;;;;;1.1;1;;;;;;;5.81;100;95934.14;;;;
2022/10/05 02:07:52;;;;;;;1.1;1;;;;;;;5.81;100;95934.14;;;;
2022/10/05 02:08:58;;;;;;;1.4;1.1;;;;;;;5.96;100;95928.65;;;;
2022/10/05 02:10:05;;;;;;;1.4;1.1;;;;;;;5.96;100;95928.65;;;;
2022/10/05 02:11:15;;;;;;;1.4;1.1;;;;;;;5.96;100;95928.65;;;;
2022/10/05 02:12:15;;;;;;;1.4;1.1;;;;;;;5.96;100;95928.65;;;;
2022/10/05 02:13:19;;;;;;;1.4;1.1;;;;;;;5.96;100;95928.65;;;;
2022/10/05 02:14:25;;;;;;;1.4;1.1;;;;;;;5.96;100;95928.65;;;;
2022/10/05 02:15:30;;;;;;;1.4;1.1;;;;;;;5.96;100;95928.65;;;;
2022/10/05 02:16:36;;;;;;;1.4;1.1;;;;;;;5.96;100;95928.65;;;;
2022/10/05 02:17:40;;;;;;;1.4;1.1;;;;;;;5.96;100;95928.65;;;;
2022/10/05 02:18:45;;;;;;;1.4;1.1;;;;;;;5.96;100;95928.65;;;;
2022/10/05 02:19:51;;;;;;;1.15;1.1;;;;;;;6.13;100;95914.9;;;;
2022/10/05 02:20:57;;;;;;;1.15;1.1;;;;;;;6.13;100;95914.9;;;;
2022/10/05 02:22:00;;;;;;;1.15;1.1;;;;;;;6.13;100;95914.9;;;;
2022/10/05 02:23:06;;;;;;;1.15;1.1;;;;;;;6.13;100;95914.9;;;;
2022/10/05 02:24:13;;;;;;;1.15;1.1;;;;;;;6.13;100;95914.9;;;;
2022/10/05 02:25:22;;;;;;;1.15;1.1;;;;;;;6.13;100;95914.9;;;;
2022/10/05 02:26:27;;;;;;;1.15;1.1;;;;;;;6.13;100;95914.9;;;;
2022/10/05 02:27:32;;;;;;;1.15;1.1;;;;;;;6.13;100;95914.9;;;;
2022/10/05 02:28:38;;;;;;;1.15;1.1;;;;;;;6.13;100;95914.9;;;;
2022/10/05 02:29:43;;;;;;;0;0;;;;;;;0;0;0;;;;
2022/10/05 02:30:47;;;;;;;0;0;;;;;;;0;0;0;;;;
2022/10/05 02:31:53;;;;;;;0;0;;;;;;;0;0;0;;;;
2022/10/05 02:32:59;;;;;;;0;0;;;;;;;0;0;0;;;;
2022/10/05 02:34:05;;;;;;;0;0;;;;;;;0;0;0;;;;
2022/10/05 02:35:24;;;;;;;0;0;;;;;;;0;0;0;;;;
2022/10/05 02:36:25;;;;;;;0;0;;;;;;;0;0;0;;;;
2022/10/05 02:37:33;;;;;;;0;0;;;;;;;0;0;0;;;;
2022/10/05 02:38:41;;;;;;;0;0;;;;;;;0;0;0;;;;
2022/10/05 02:39:56;;;;;;;0;0;;;;;;;0;0;0;;;;
2022/10/05 02:41:10;;;;;;;0;0;;;;;;;0;0;0;;;;
2022/10/05 02:42:23;;;;;;;0;0;;;;;;;0;0;0;;;;
2022/10/05 02:43:30;;;;;;;0;0;;;;;;;0;0;0;;;;
2022/10/05 02:44:40;;;;;;;0;0;;;;;;;0;0;0;;;;
2022/10/05 02:45:51;;;;;;;0;0;;;;;;;0;0;0;;;;
2022/10/05 02:47:02;;;;;;;0;0;;;;;;;0;0;0;;;;
2022/10/05 02:48:11;;;;;;;0;0;;;;;;;0;0;0;;;;
2022/10/05 02:49:19;;;;;;;0;0;;;;;;;0;0;0;;;;
2022/10/05 02:50:27;;;;;;;0;0;;;;;;;0;0;0;;;;
2022/10/05 02:51:37;;;;;;;0;0;;;;;;;0;0;0;;;;
2022/10/05 02:52:48;;;;;;;0;0;;;;;;;0;0;0;;;;
2022/10/05 02:53:56;;;;;;;0;0;;;;;;;0;0;0;;;;
2022/10/05 02:55:08;;;;;;;0;0;;;;;;;0;0;0;;;;
2022/10/05 02:56:16;;;;;;;0;0;;;;;;;0;0;0;;;;
2022/10/05 02:57:26;;;;;;;0;0;;;;;;;0;0;0;;;;
2022/10/05 02:58:30;;;;;;;0;0;;;;;;;0;0;0;;;;
2022/10/05 02:59:38;;;;;;;0;0;;;;;;;0;0;0;;;;
2022/10/05 03:00:50;;;;;;;0.8;0.8;;;;;;;6.55;100;95891.75;;;;
2022/10/05 03:01:59;;;;;;;0.8;0.8;;;;;;;6.55;100;95891.75;;;;
2022/10/05 03:03:07;;;;;;;0.8;0.8;;;;;;;6.55;100;95891.75;;;;
2022/10/05 03:04:14;;;;;;;0.8;0.8;;;;;;;6.55;100;95891.75;;;;
2022/10/05 03:05:25;;;;;;;0.8;0.8;;;;;;;6.55;100;95891.75;;;;
2022/10/05 03:06:30;;;;;;;0.8;0.8;;;;;;;6.55;100;95891.75;;;;
2022/10/05 03:07:37;;;;;;;0.8;0.8;;;;;;;6.55;100;95891.75;;;;
2022/10/05 03:08:45;;;;;;;0.8;0.8;;;;;;;6.55;100;95891.75;;;;
2022/10/05 03:09:54;;;;;;;0.8;0.8;;;;;;;6.55;100;95891.75;;;;
2022/10/05 03:11:08;;;;;;;0;0;;;;;;;0;0;0;;;;
2022/10/05 03:12:17;;;;;;;0;0;;;;;;;0;0;0;;;;
2022/10/05 03:13:32;;;;;;;0;0;;;;;;;0;0;0;;;;
2022/10/05 03:14:42;;;;;;;0;0;;;;;;;0;0;0;;;;
2022/10/05 03:15:55;;;;;;;0;0;;;;;;;0;0;0;;;;
2022/10/05 03:17:08;;;;;;;0;0;;;;;;;0;0;0;;;;
2022/10/05 03:18:14;;;;;;;0;0;;;;;;;0;0;0;;;;
2022/10/05 03:19:25;;;;;;;0;0;;;;;;;0;0;0;;;;
2022/10/05 03:20:40;;;;;;;0;0;;;;;;;0;0;0;;;;
2022/10/05 03:21:47;;;;;;;0;0;;;;;;;0;0;0;;;;
2022/10/05 03:22:55;;;;;;;0;0;;;;;;;0;0;0;;;;
2022/10/05 03:23:59;;;;;;;0;0;;;;;;;0;0;0;;;;
2022/10/05 03:25:17;;;;;;;0;0;;;;;;;0;0;0;;;;
2022/10/05 03:26:32;;;;;;;0;0;;;;;;;0;0;0;;;;
2022/10/05 03:27:40;;;;;;;0;0;;;;;;;0;0;0;;;;
2022/10/05 03:28:48;;;;;;;0;0;;;;;;;0;0;0;;;;
2022/10/05 03:29:59;;;;;;;0;0;;;;;;;0;0;0;;;;
2022/10/05 03:31:04;;;;;;;0;0;;;;;;;0;0;0;;;;
2022/10/05 03:32:13;;;;;;;0;0;;;;;;;0;0;0;;;;
2022/10/05 03:33:24;;;;;;;0;0;;;;;;;0;0;0;;;;
2022/10/05 03:34:33;;;;;;;0;0;;;;;;;0;0;0;;;;
2022/10/05 03:35:40;;;;;;;0;0;;;;;;;0;0;0;;;;
2022/10/05 03:36:49;;;;;;;0;0;;;;;;;0;0;0;;;;
2022/10/05 03:37:59;;;;;;;0;0;;;;;;;0;0;0;;;;
2022/10/05 03:39:09;;;;;;;0;0;;;;;;;0;0;0;;;;
2022/10/05 03:40:17;;;;;;;0;0;;;;;;;0;0;0;;;;
2022/10/05 03:41:28;;;;;;;0;0;;;;;;;0;0;0;;;;
2022/10/05 03:42:36;;;;;;;0;0;;;;;;;0;0;0;;;;
2022/10/05 03:43:51;;;;;;;0;0;;;;;;;0;0;0;;;;
2022/10/05 03:45:08;;;;;;;0;0;;;;;;;0;0;0;;;;
2022/10/05 03:46:21;;;;;;;0;0;;;;;;;0;0;0;;;;
2022/10/05 03:47:30;;;;;;;0;0;;;;;;;0;0;0;;;;
2022/10/05 03:48:38;;;;;;;0;0;;;;;;;0;0;0;;;;
2022/10/05 03:49:46;;;;;;;0;0;;;;;;;0;0;0;;;;
2022/10/05 03:50:57;;;;;;;0;0;;;;;;;0;0;0;;;;
2022/10/05 03:52:06;;;;;;;0;0;;;;;;;0;0;0;;;;
2022/10/05 03:53:12;;;;;;;0;0;;;;;;;0;0;0;;;;
2022/10/05 03:54:18;;;;;;;0;0;;;;;;;0;0;0;;;;
2022/10/05 03:55:23;;;;;;;0;0;;;;;;;0;0;0;;;;
2022/10/05 03:56:31;;;;;;;0;0;;;;;;;0;0;0;;;;
2022/10/05 03:57:37;;;;;;;0;0;;;;;;;0;0;0;;;;
2022/10/05 03:58:40;;;;;;;0;0;;;;;;;0;0;0;;;;
2022/10/05 03:59:48;;;;;;;0;0;;;;;;;0;0;0;;;;
2022/10/05 04:00:57;;;;;;;0;0;;;;;;;0;0;0;;;;
2022/10/05 04:02:02;;;;;;;0;0;;;;;;;0;0;0;;;;
2022/10/05 04:03:06;;;;;;;0;0;;;;;;;0;0;0;;;;
2022/10/05 04:04:13;;;;;;;0;0;;;;;;;0;0;0;;;;
2022/10/05 04:05:21;;;;;;;0;0;;;;;;;0;0;0;;;;
2022/10/05 04:06:24;;;;;;;0;0;;;;;;;0;0;0;;;;
2022/10/05 04:07:28;;;;;;;0;0;;;;;;;0;0;0;;;;
2022/10/05 04:08:38;;;;;;;0;0;;;;;;;0;0;0;;;;
2022/10/05 04:09:46;;;;;;;0;0;;;;;;;0;0;0;;;;
2022/10/05 04:10:51;;;;;;;0;0;;;;;;;0;0;0;;;;
2022/10/05 04:11:55;;;;;;;0;0;;;;;;;0;0;0;;;;
2022/10/05 04:13:03;;;;;;;0;0;;;;;;;0;0;0;;;;
2022/10/05 04:14:10;;;;;;;0;0;;;;;;;0;0;0;;;;
2022/10/05 04:15:15;;;;;;;0;0;;;;;;;0;0;0;;;;
2022/10/05 04:16:26;;;;;;;0;0;;;;;;;0;0;0;;;;
2022/10/05 04:17:30;;;;;;;0;0;;;;;;;0;0;0;;;;
2022/10/05 04:18:35;;;;;;;0;0;;;;;;;0;0;0;;;;
2022/10/05 04:19:40;;;;;;;0;0;;;;;;;0;0;0;;;;
2022/10/05 04:20:44;;;;;;;0;0;;;;;;;0;0;0;;;;
2022/10/05 04:21:49;;;;;;;0;0;;;;;;;0;0;0;;;;
2022/10/05 04:22:52;;;;;;;0;0;;;;;;;0;0;0;;;;
2022/10/05 04:23:58;;;;;;;0;0;;;;;;;0;0;0;;;;
2022/10/05 04:25:04;;;;;;;0;0;;;;;;;0;0;0;;;;
2022/10/05 04:26:14;;;;;;;0;0;;;;;;;0;0;0;;;;
2022/10/05 04:27:19;;;;;;;0;0;;;;;;;0;0;0;;;;
2022/10/05 04:28:24;;;;;;;0;0;;;;;;;0;0;0;;;;
2022/10/05 04:29:36;;;;;;;0;0;;;;;;;0;0;0;;;;
2022/10/05 04:30:41;;;;;;;0;0;;;;;;;0;0;0;;;;
2022/10/05 04:31:47;;;;;;;0;0;;;;;;;0;0;0;;;;
2022/10/05 04:33:02;;;;;;;0;0;;;;;;;0;0;0;;;;
2022/10/05 04:34:08;;;;;;;0;0;;;;;;;0;0;0;;;;
2022/10/05 04:35:19;;;;;;;0;0;;;;;;;0;0;0;;;;
2022/10/05 04:36:34;;;;;;;0;0;;;;;;;0;0;0;;;;
2022/10/05 04:37:44;;;;;;;0;0;;;;;;;0;0;0;;;;
2022/10/05 04:38:53;;;;;;;0;0;;;;;;;0;0;0;;;;
2022/10/05 04:40:09;;;;;;;0;0;;;;;;;0;0;0;;;;
2022/10/05 04:41:22;;;;;;;0;0;;;;;;;0;0;0;;;;
2022/10/05 04:42:36;;;;;;;0;0;;;;;;;0;0;0;;;;
2022/10/05 04:43:44;;;;;;;0;0;;;;;;;0;0;0;;;;
2022/10/05 04:45:00;;;;;;;0;0;;;;;;;0;0;0;;;;
2022/10/05 04:46:07;;;;;;;0;0;;;;;;;0;0;0;;;;
2022/10/05 04:47:18;;;;;;;0;0;;;;;;;0;0;0;;;;
2022/10/05 04:48:35;;;;;;;0;0;;;;;;;0;0;0;;;;
2022/10/05 04:49:50;;;;;;;0;0;;;;;;;0;0;0;;;;
2022/10/05 04:51:06;;;;;;;0;0;;;;;;;0;0;0;;;;
2022/10/05 04:52:19;;;;;;;0;0;;;;;;;0;0;0;;;;
2022/10/05 04:53:27;;;;;;;0;0;;;;;;;0;0;0;;;;
2022/10/05 04:54:32;;;;;;;0;0;;;;;;;0;0;0;;;;
2022/10/05 04:55:45;;;;;;;0;0;;;;;;;0;0;0;;;;
2022/10/05 04:56:55;;;;;;;0;0;;;;;;;0;0;0;;;;
2022/10/05 04:57:59;;;;;;;0;0;;;;;;;0;0;0;;;;
2022/10/05 04:59:07;;;;;;;0;0;;;;;;;0;0;0;;;;
2022/10/05 05:00:27;;;;;;;0;0;;;;;;;0;0;0;;;;
2022/10/05 05:01:41;;;;;;;0;0;;;;;;;0;0;0;;;;
2022/10/05 05:02:57;;;;;;;0;0;;;;;;;0;0;0;;;;
2022/10/05 05:04:14;;;;;;;0;0;;;;;;;0;0;0;;;;
2022/10/05 05:05:34;;;;;;;0;0;;;;;;;0;0;0;;;;
2022/10/05 05:06:45;;;;;;;0;0;;;;;;;0;0;0;;;;
2022/10/05 05:07:53;;;;;;;0;0;;;;;;;0;0;0;;;;
2022/10/05 05:09:04;;;;;;;0;0;;;;;;;0;0;0;;;;
2022/10/05 05:10:18;;;;;;;0;0;;;;;;;0;0;0;;;;
2022/10/05 05:11:39;;;;;;;0;0;;;;;;;0;0;0;;;;
2022/10/05 05:12:52;;;;;;;0;0;;;;;;;0;0;0;;;;
2022/10/05 05:14:06;;;;;;;0;0;;;;;;;0;0;0;;;;
2022/10/05 05:15:35;;;;;;;0;0;;;;;;;0;0;0;;;;
2022/10/05 05:16:42;;;;;;;0;0;;;;;;;0;0;0;;;;
2022/10/05 05:17:47;;;;;;;0;0;;;;;;;0;0;0;;;;
2022/10/05 05:19:01;;;;;;;0;0;;;;;;;0;0;0;;;;
2022/10/05 05:20:25;;;;;;;0;0;;;;;;;0;0;0;;;;
2022/10/05 05:21:39;;;;;;;0;0;;;;;;;0;0;0;;;;
2022/10/05 05:22:48;;;;;;;0;0;;;;;;;0;0;0;;;;
2022/10/05 05:23:56;;;;;;;0;0;;;;;;;0;0;0;;;;
2022/10/05 05:25:04;;;;;;;0;0;;;;;;;0;0;0;;;;
2022/10/05 05:26:20;;;;;;;0;0;;;;;;;0;0;0;;;;
2022/10/05 05:27:28;;;;;;;0;0;;;;;;;0;0;0;;;;
2022/10/05 05:28:40;;;;;;;0;0;;;;;;;0;0;0;;;;
2022/10/05 05:29:47;;;;;;;0;0;;;;;;;0;0;0;;;;
2022/10/05 05:31:02;;;;;;;0;0;;;;;;;0;0;0;;;;
2022/10/05 05:32:12;;;;;;;0;0;;;;;;;0;0;0;;;;
2022/10/05 05:33:22;;;;;;;0;0;;;;;;;0;0;0;;;;
2022/10/05 05:34:34;;;;;;;0;0;;;;;;;0;0;0;;;;
2022/10/05 05:35:45;;;;;;;0;0;;;;;;;0;0;0;;;;
2022/10/05 05:37:58;;;;;;;0;0;;;;;;;0;0;0;;;;
2022/10/05 05:39:09;;;;;;;0;0;;;;;;;0;0;0;;;;
2022/10/05 05:40:26;;;;;;;0;0;;;;;;;0;0;0;;;;
2022/10/05 05:41:32;;;;;;;0;0;;;;;;;0;0;0;;;;
2022/10/05 05:42:37;;;;;;;0;0;;;;;;;0;0;0;;;;
2022/10/05 05:43:48;;;;;;;0;0;;;;;;;0;0;0;;;;
2022/10/05 05:45:00;;;;;;;0;0;;;;;;;0;0;0;;;;
2022/10/05 05:46:13;;;;;;;0;0;;;;;;;0;0;0;;;;
2022/10/05 05:47:21;;;;;;;0;0;;;;;;;0;0;0;;;;
2022/10/05 05:48:29;;;;;;;0;0;;;;;;;0;0;0;;;;
2022/10/05 05:49:37;;;;;;;0;0;;;;;;;0;0;0;;;;
2022/10/05 05:50:50;;;;;;;0;0;;;;;;;0;0;0;;;;
2022/10/05 05:51:56;;;;;;;0;0;;;;;;;0;0;0;;;;
2022/10/05 05:53:00;;;;;;;0;0;;;;;;;0;0;0;;;;
2022/10/05 05:54:10;;;;;;;0;0;;;;;;;0;0;0;;;;
2022/10/05 05:55:23;;;;;;;0;0;;;;;;;0;0;0;;;;
2022/10/05 05:56:28;;;;;;;0;0;;;;;;;0;0;0;;;;
2022/10/05 05:57:33;;;;;;;0;0;;;;;;;0;0;0;;;;
2022/10/05 05:58:39;;;;;;;0;0;;;;;;;0;0;0;;;;
2022/10/05 05:59:48;;;;;;;0;0;;;;;;;0;0;0;;;;
2022/10/05 06:00:57;;;;;;;0;0;;;;;;;0;0;0;;;;
2022/10/05 06:02:03;;;;;;;0;0;;;;;;;0;0;0;;;;
2022/10/05 06:03:08;;;;;;;0;0;;;;;;;0;0;0;;;;
2022/10/05 06:04:12;;;;;;;0;0;;;;;;;0;0;0;;;;
2022/10/05 06:05:15;;;;;;;0;0;;;;;;;0;0;0;;;;
2022/10/05 06:06:26;;;;;;;0;0;;;;;;;0;0;0;;;;
2022/10/05 06:07:37;;;;;;;0;0;;;;;;;0;0;0;;;;
2022/10/05 06:08:38;;;;;;;0;0;;;;;;;0;0;0;;;;
2022/10/05 06:09:42;;;;;;;0;0;;;;;;;0;0;0;;;;
2022/10/05 06:10:49;;;;;;;0;0;;;;;;;0;0;0;;;;
2022/10/05 06:11:54;;;;;;;0;0;;;;;;;0;0;0;;;;
2022/10/05 06:12:57;;;;;;;0;0;;;;;;;0;0;0;;;;
2022/10/05 06:14:05;;;;;;;0;0;;;;;;;0;0;0;;;;
2022/10/05 06:15:13;;;;;;;0;0;;;;;;;0;0;0;;;;
2022/10/05 06:16:23;;;;;;;0;0;;;;;;;0;0;0;;;;
2022/10/05 06:17:30;;;;;;;0;0;;;;;;;0;0;0;;;;
2022/10/05 06:18:38;;;;;;;0;0;;;;;;;0;0;0;;;;
2022/10/05 06:19:43;;;;;;;0;0;;;;;;;0;0;0;;;;
2022/10/05 06:20:46;;;;;;;0;0;;;;;;;0;0;0;;;;
2022/10/05 06:21:53;;;;;;;0;0;;;;;;;0;0;0;;;;
2022/10/05 06:22:57;;;;;;;0;0;;;;;;;0;0;0;;;;
2022/10/05 06:24:03;;;;;;;0;0;;;;;;;0;0;0;;;;
2022/10/05 06:25:13;;;;;;;0;0;;;;;;;0;0;0;;;;
2022/10/05 06:26:25;;;;;;;0;0;;;;;;;0;0;0;;;;
2022/10/05 06:27:41;;;;;;;0;0;;;;;;;0;0;0;;;;
2022/10/05 06:29:00;;;;;;;0;0;;;;;;;0;0;0;;;;
2022/10/05 06:30:06;;;;;;;0;0;;;;;;;0;0;0;;;;
2022/10/05 06:31:09;;;;;;;0;0;;;;;;;0;0;0;;;;
2022/10/05 06:32:27;;;;;;;0;0;;;;;;;0;0;0;;;;
2022/10/05 06:33:31;;;;;;;0;0;;;;;;;0;0;0;;;;
2022/10/05 06:34:44;;;;;;;0;0;;;;;;;0;0;0;;;;
2022/10/05 06:35:59;;;;;;;0;0;;;;;;;0;0;0;;;;
2022/10/05 06:37:11;;;;;;;0;0;;;;;;;0;0;0;;;;
2022/10/05 06:38:19;;;;;;;0;0;;;;;;;0;0;0;;;;
2022/10/05 06:39:32;;;;;;;0;0;;;;;;;0;0;0;;;;
2022/10/05 06:40:47;;;;;;;0;0;;;;;;;0;0;0;;;;
2022/10/05 06:42:04;;;;;;;0;0;;;;;;;0;0;0;;;;
2022/10/05 06:43:16;;;;;;;0;0;;;;;;;0;0;0;;;;
2022/10/05 06:44:33;;;;;;;0;0;;;;;;;0;0;0;;;;
2022/10/05 06:45:43;;;;;;;0;0;;;;;;;0;0;0;;;;
2022/10/05 06:46:55;;;;;;;0;0;;;;;;;0;0;0;;;;
2022/10/05 06:48:05;;;;;;;0;0;;;;;;;0;0;0;;;;
2022/10/05 06:49:13;;;;;;;0;0;;;;;;;0;0;0;;;;
2022/10/05 06:50:19;;;;;;;0;0;;;;;;;0;0;0;;;;
2022/10/05 06:51:30;;;;;;;0;0;;;;;;;0;0;0;;;;
2022/10/05 06:52:37;;;;;;;0;0;;;;;;;0;0;0;;;;
2022/10/05 06:53:51;;;;;;;0;0;;;;;;;0;0;0;;;;
2022/10/05 06:55:01;;;;;;;0;0;;;;;;;0;0;0;;;;
2022/10/05 06:56:13;;;;;;;0;0;;;;;;;0;0;0;;;;
2022/10/05 06:57:20;;;;;;;0;0;;;;;;;0;0;0;;;;
2022/10/05 06:58:43;;;;;;;0;0;;;;;;;0;0;0;;;;
2022/10/05 06:59:52;;;;;;;0;0;;;;;;;0;0;0;;;;
2022/10/05 07:00:59;;;;;;;0;0;;;;;;;0;0;0;;;;
2022/10/05 07:02:06;;;;;;;0;0;;;;;;;0;0;0;;;;
2022/10/05 07:03:17;;;;;;;0;0;;;;;;;0;0;0;;;;
2022/10/05 07:04:30;;;;;;;0;0;;;;;;;0;0;0;;;;
2022/10/05 07:05:48;;;;;;;0;0;;;;;;;0;0;0;;;;
2022/10/05 07:06:58;;;;;;;0;0;;;;;;;0;0;0;;;;
2022/10/05 07:08:05;;;;;;;0;0;;;;;;;0;0;0;;;;
2022/10/05 07:09:13;;;;;;;0;0;;;;;;;0;0;0;;;;
2022/10/05 07:10:25;;;;;;;0.6;0.4;;;;;;;13.93;100;95930.22;;;;
2022/10/05 07:11:31;;;;;;;0.6;0.4;;;;;;;13.93;100;95930.22;;;;
2022/10/05 07:12:45;;;;;;;0.6;0.4;;;;;;;13.93;100;95930.22;;;;
2022/10/05 07:14:03;;;;;;;0.6;0.4;;;;;;;13.93;100;95930.22;;;;
2022/10/05 07:15:15;;;;;;;0.6;0.4;;;;;;;13.93;100;95930.22;;;;
2022/10/05 07:16:32;;;;;;;0.6;0.4;;;;;;;13.93;100;95930.22;;;;
2022/10/05 07:17:44;;;;;;;0.6;0.4;;;;;;;13.93;100;95930.22;;;;
2022/10/05 07:18:58;;;;;;;0.6;0.4;;;;;;;13.93;100;95930.22;;;;
2022/10/05 07:20:14;;;;;;;0.6;0.4;;;;;;;13.93;100;95930.22;;;;
2022/10/05 07:21:21;;;;;;;1;0.5;;;;;;;20.97;81.41992;95913.78;;;;
2022/10/05 07:22:32;;;;;;;1;0.5;;;;;;;20.97;81.41992;95913.78;;;;
2022/10/05 07:23:45;;;;;;;1;0.5;;;;;;;20.97;81.41992;95913.78;;;;
2022/10/05 07:24:58;;;;;;;1;0.5;;;;;;;20.97;81.41992;95913.78;;;;
2022/10/05 07:26:05;;;;;;;1;0.5;;;;;;;20.97;81.41992;95913.78;;;;
2022/10/05 07:27:13;;;;;;;1;0.5;;;;;;;20.97;81.41992;95913.78;;;;
2022/10/05 07:28:17;;;;;;;1;0.5;;;;;;;20.97;81.41992;95913.78;;;;
2022/10/05 07:29:26;;;;;;;1;0.5;;;;;;;20.97;81.41992;95913.78;;;;
2022/10/05 07:30:35;;;;;;;1;0.5;;;;;;;20.97;81.41992;95913.78;;;;
2022/10/05 07:31:44;;;;;;;1;0.5;;;;;;;20.97;81.41992;95913.78;;;;
2022/10/05 07:32:50;;;;;;;1.05;0.45;;;;;;;25.45;74.19531;95918.07;;;;
2022/10/05 07:33:57;;;;;;;1.05;0.45;;;;;;;25.45;74.19531;95918.07;;;;
2022/10/05 07:35:05;;;;;;;1.05;0.45;;;;;;;25.45;74.19531;95918.07;;;;
2022/10/05 07:41:37;;;;;;;1.05;0.45;;;;;;;25.45;74.19531;95918.07;;;;
2022/10/05 07:42:42;;;;;;;0.6;0.6;;;;;;;29.03;69.10156;95918.73;;;;
2022/10/05 07:43:54;;;;;;;0.6;0.6;;;;;;;29.03;69.10156;95918.73;;;;
2022/10/05 07:45:03;;;;;;;0.6;0.6;;;;;;;29.03;69.10156;95918.73;;;;
2022/10/05 07:46:13;;;;;;;0.6;0.6;;;;;;;29.03;69.10156;95918.73;;;;
2022/10/05 07:47:20;;;;;;;0.6;0.6;;;;;;;29.03;69.10156;95918.73;;;;
2022/10/05 07:48:32;;;;;;;0.6;0.6;;;;;;;29.03;69.10156;95918.73;;;;
2022/10/05 07:49:48;;;;;;;0.6;0.6;;;;;;;29.03;69.10156;95918.73;;;;
2022/10/05 07:50:55;;;;;;;0.6;0.6;;;;;;;29.03;69.10156;95918.73;;;;
2022/10/05 07:52:00;;;;;;;0.6;0.6;;;;;;;29.03;69.10156;95918.73;;;;
2022/10/05 07:53:04;;;;;;;0.6;0.6;;;;;;;29.03;69.10156;95918.73;;;;
2022/10/05 07:54:13;;;;;;;1.5;0.7;;;;;;;31.14;66.36133;95923.49;;;;
2022/10/05 07:55:20;;;;;;;1.5;0.7;;;;;;;31.14;66.36133;95923.49;;;;
2022/10/05 07:56:23;;;;;;;1.5;0.7;;;;;;;31.14;66.36133;95923.49;;;;
2022/10/05 07:57:29;;;;;;;1.5;0.7;;;;;;;31.14;66.36133;95923.49;;;;
2022/10/05 07:58:38;;;;;;;1.5;0.7;;;;;;;31.14;66.36133;95923.49;;;;
2022/10/05 07:59:43;;;;;;;1.5;0.7;;;;;;;31.14;66.36133;95923.49;;;;
2022/10/05 08:00:52;;;;;;;1.5;0.7;;;;;;;31.14;66.36133;95923.49;;;;
2022/10/05 08:02:02;;;;;;;1.5;0.7;;;;;;;31.14;66.36133;95923.49;;;;
2022/10/05 08:03:19;;;;;;;1.5;0.7;;;;;;;31.14;66.36133;95923.49;;;;
2022/10/05 08:04:33;;;;;;;1.2;0.65;;;;;;;33.36;63.49121;95918.02;;;;
2022/10/05 08:05:39;;;;;;;1.2;0.65;;;;;;;33.36;63.49121;95918.02;;;;
2022/10/05 08:06:43;;;;;;;1.2;0.65;;;;;;;33.36;63.49121;95918.02;;;;
2022/10/05 08:07:49;;;;;;;1.2;0.65;;;;;;;33.36;63.49121;95918.02;;;;
2022/10/05 08:08:57;;;;;;;1.2;0.65;;;;;;;33.36;63.49121;95918.02;;;;
2022/10/05 08:10:06;;;;;;;1.2;0.65;;;;;;;33.36;63.49121;95918.02;;;;
2022/10/05 08:11:22;;;;;;;1.2;0.65;;;;;;;33.36;63.49121;95918.02;;;;
2022/10/05 08:12:29;;;;;;;1.2;0.65;;;;;;;33.36;63.49121;95918.02;;;;
2022/10/05 08:13:39;;;;;;;1.2;0.65;;;;;;;33.36;63.49121;95918.02;;;;
2022/10/05 08:14:47;;;;;;;0.8;0.6;;;;;;;35.16;62.24707;95932.84;;;;
2022/10/05 08:15:54;;;;;;;0.8;0.6;;;;;;;35.16;62.24707;95932.84;;;;
2022/10/05 08:16:59;;;;;;;0.8;0.6;;;;;;;35.16;62.24707;95932.84;;;;
2022/10/05 08:18:08;;;;;;;0.8;0.6;;;;;;;35.16;62.24707;95932.84;;;;
2022/10/05 08:19:16;;;;;;;0.8;0.6;;;;;;;35.16;62.24707;95932.84;;;;
2022/10/05 08:20:23;;;;;;;0.8;0.6;;;;;;;35.16;62.24707;95932.84;;;;
2022/10/05 08:21:32;;;;;;;0.8;0.6;;;;;;;35.16;62.24707;95932.84;;;;
2022/10/05 08:22:37;;;;;;;0.8;0.6;;;;;;;35.16;62.24707;95932.84;;;;
2022/10/05 08:23:44;;;;;;;0.8;0.6;;;;;;;35.16;62.24707;95932.84;;;;
2022/10/05 08:24:52;;;;;;;0.8;0.6;;;;;;;35.16;62.24707;95932.84;;;;
2022/10/05 08:25:57;;;;;;;0.85;0.5;;;;;;;36.85;60.5957;95928.31;;;;